Welcome to Northern Hawkes Bay. New Zealand.
PWS Header
      nz Flag



Hit Counter


W3C Valid W3C Valid logo


    Wairoa

Select any of the Stations below to visit their websites.










Historic Data from Weather Underground
Select the location of interest below. Wairoa is the default. Please have patience, this Data is slow to load in.
Northern Hawkes Bay Historical Data
Daily Summary for January 11, 2019 Units:  Metric    English   Both
« Previous Day
Next Day »
Daily Weekly Monthly Yearly Custom
  High: Low: Average:
Temperature: 31.6 °C 18.1 °C 24.7 °C
Dew Point: 21.2 °C 13.1 °C 16.1 °C
Humidity: 87% 36% 60%
Wind Speed: 17.2km/h 0.0km/h 8.1km/h
Wind Gust: 27.0km/h - -
Wind- - WSW
Pressure: 1032.2 hPa 1014.2 hPa -
Precipitation: 0.0 mm    
Historical Graphs
 
 
Tabular Data for January 11, 2019
Time Temperature Dew Point Pressure Wind Wind Speed Wind Gust Humidity Rainfall Rate (Hourly) solar
00:04 22.7 °C 17.4 °C 1015.6 hPa NNW 5.0 km/h 13.4 km/h 72% 0.0 mm 0.00 W/m2
00:09 22.7 °C 17.4 °C 1015.4 hPa NNW 5.0 km/h 15.8 km/h 72% 0.0 mm 0.00 W/m2
00:14 22.7 °C 17.2 °C 1015.5 hPa NNW 5.0 km/h 15.8 km/h 71% 0.0 mm 0.00 W/m2
00:19 22.7 °C 17.4 °C 1015.5 hPa NNW 5.0 km/h 12.2 km/h 72% 0.0 mm 0.00 W/m2
00:24 22.4 °C 17.1 °C 1015.6 hPa NNW 6.1 km/h 12.2 km/h 72% 0.0 mm 0.00 W/m2
00:29 22.4 °C 17.1 °C 1015.6 hPa NNW 3.5 km/h 12.2 km/h 72% 0.0 mm 0.00 W/m2
00:34 22.4 °C 17.1 °C 1015.6 hPa NW 7.2 km/h 12.2 km/h 72% 0.0 mm 0.00 W/m2
00:39 22.4 °C 17.1 °C 1015.6 hPa NNW 5.0 km/h 13.4 km/h 72% 0.0 mm 0.00 W/m2
00:44 22.4 °C 17.1 °C 1015.6 hPa NW 3.5 km/h 13.4 km/h 72% 0.0 mm 0.00 W/m2
00:49 22.4 °C 16.9 °C 1015.3 hPa NW 7.2 km/h 12.2 km/h 71% 0.0 mm 0.00 W/m2
00:54 22.4 °C 16.9 °C 1015.4 hPa NNW 6.1 km/h 13.4 km/h 71% 0.0 mm 0.00 W/m2
00:59 22.4 °C 16.9 °C 1015.3 hPa NNW 6.1 km/h 13.4 km/h 71% 0.0 mm 0.00 W/m2
01:05 22.4 °C 16.9 °C 1015.3 hPa NNW 6.1 km/h 13.4 km/h 71% 0.0 mm 0.00 W/m2
01:09 22.4 °C 16.9 °C 1015.2 hPa NNW 6.1 km/h 13.4 km/h 71% 0.0 mm 0.00 W/m2
01:14 22.4 °C 16.9 °C 1015.3 hPa NNW 6.1 km/h 13.4 km/h 71% 0.0 mm 0.00 W/m2
01:15 22.4 °C 16.9 °C 1015.4 hPa NNW 7.2 km/h 13.4 km/h 71% 0.0 mm 0.00 W/m2
01:34 22.0 °C 16.5 °C 1015.3 hPa NW 3.5 km/h 8.7 km/h 71% 0.0 mm 0.00 W/m2
01:39 21.7 °C 16.7 °C 1015.2 hPa NW 3.5 km/h 7.2 km/h 73% 0.0 mm 0.00 W/m2
01:44 21.4 °C 16.6 °C 1015.3 hPa NW 1.1 km/h 6.1 km/h 74% 0.0 mm 0.00 W/m2
01:49 21.2 °C 16.6 °C 1015.1 hPa WNW 3.5 km/h 5.0 km/h 75% 0.0 mm 0.00 W/m2
01:54 20.9 °C 16.9 °C 1015.2 hPa Calm   5.0 km/h 78% 0.0 mm 0.00 W/m2
01:59 20.7 °C 16.9 °C 1015.0 hPa Calm   5.0 km/h 79% 0.0 mm 0.00 W/m2
02:04 20.6 °C 17.1 °C 1015.0 hPa Calm     80% 0.0 mm 0.00 W/m2
02:09 20.4 °C 16.8 °C 1015.0 hPa Calm     80% 0.0 mm 0.00 W/m2
02:15 20.1 °C 16.8 °C 1014.9 hPa Calm     81% 0.0 mm 0.00 W/m2
02:19 20.0 °C 16.7 °C 1014.6 hPa Calm     81% 0.0 mm 0.00 W/m2
02:25 19.8 °C 16.7 °C 1015.1 hPa Calm     82% 0.0 mm 0.00 W/m2
02:29 19.6 °C 16.7 °C 1014.8 hPa Calm     83% 0.0 mm 0.00 W/m2
02:34 19.5 °C 16.6 °C 1014.6 hPa Calm     83% 0.0 mm 0.00 W/m2
02:39 19.6 °C 16.8 °C 1014.6 hPa West 2.6 km/h 5.0 km/h 84% 0.0 mm 0.00 W/m2
02:45 19.5 °C 16.7 °C 1014.7 hPa West 3.5 km/h 6.1 km/h 84% 0.0 mm 0.00 W/m2
02:49 19.5 °C 16.7 °C 1014.5 hPa West 2.6 km/h 6.1 km/h 84% 0.0 mm 0.00 W/m2
02:55 19.3 °C 16.6 °C 1014.6 hPa Calm   5.0 km/h 84% 0.0 mm 0.00 W/m2
02:59 19.2 °C 16.4 °C 1014.8 hPa Calm   5.0 km/h 84% 0.0 mm 0.00 W/m2
03:04 19.0 °C 16.2 °C 1014.7 hPa Calm     84% 0.0 mm 0.00 W/m2
03:09 18.9 °C 16.3 °C 1014.8 hPa Calm     85% 0.0 mm 0.00 W/m2
03:14 18.8 °C 16.2 °C 1014.8 hPa Calm     85% 0.0 mm 0.00 W/m2
03:19 18.9 °C 16.5 °C 1014.7 hPa Calm   2.6 km/h 86% 0.0 mm 0.00 W/m2
03:24 18.7 °C 16.3 °C 1014.8 hPa Calm   2.6 km/h 86% 0.0 mm 0.00 W/m2
03:29 18.7 °C 16.5 °C 1014.6 hPa WNW 1.1 km/h 5.0 km/h 87% 0.0 mm 0.00 W/m2
03:34 18.6 °C 16.4 °C 1014.6 hPa NW 6.1 km/h 7.2 km/h 87% 0.0 mm 0.00 W/m2
03:39 18.6 °C 16.4 °C 1014.2 hPa NW 3.5 km/h 9.7 km/h 87% 0.0 mm 0.00 W/m2
03:44 19.1 °C 16.3 °C 1014.4 hPa NW 5.0 km/h 9.7 km/h 84% 0.0 mm 0.00 W/m2
03:49 19.6 °C 15.7 °C 1014.4 hPa NW 11.1 km/h 18.3 km/h 78% 0.0 mm 0.00 W/m2
03:54 20.4 °C 15.4 °C 1014.5 hPa WNW 9.7 km/h 18.3 km/h 73% 0.0 mm 0.00 W/m2
03:59 21.0 °C 14.7 °C 1014.5 hPa WNW 7.2 km/h 19.5 km/h 67% 0.0 mm 0.00 W/m2
04:04 20.7 °C 14.8 °C 1014.7 hPa WNW 7.2 km/h 19.5 km/h 69% 0.0 mm 0.00 W/m2
04:09 20.6 °C 14.5 °C 1014.7 hPa WNW 8.7 km/h 14.8 km/h 68% 0.0 mm 0.00 W/m2
04:14 20.7 °C 14.1 °C 1014.9 hPa WNW 5.0 km/h 14.8 km/h 66% 0.0 mm 0.00 W/m2
04:19 20.8 °C 14.0 °C 1015.1 hPa NW 6.1 km/h 11.1 km/h 65% 0.0 mm 0.00 W/m2
04:24 20.8 °C 14.0 °C 1015.3 hPa NW 5.0 km/h 9.7 km/h 65% 0.0 mm 0.00 W/m2
04:29 20.8 °C 13.8 °C 1015.2 hPa NW 6.1 km/h 9.7 km/h 64% 0.0 mm 0.00 W/m2
04:34 21.1 °C 13.6 °C 1015.3 hPa NW 7.2 km/h 9.7 km/h 62% 0.0 mm 0.00 W/m2
04:39 21.2 °C 13.7 °C 1015.4 hPa NW 5.0 km/h 9.7 km/h 62% 0.0 mm 0.00 W/m2
04:44 21.4 °C 13.6 °C 1015.2 hPa NW 6.1 km/h 9.7 km/h 61% 0.0 mm 0.00 W/m2
04:49 21.3 °C 13.2 °C 1015.1 hPa NW 6.1 km/h 12.2 km/h 60% 0.0 mm 0.00 W/m2
04:54 21.4 °C 13.1 °C 1015.3 hPa NW 8.7 km/h 13.4 km/h 59% 0.0 mm 0.00 W/m2
04:55 21.5 °C 13.4 °C 1015.2 hPa NW 7.2 km/h 13.4 km/h 60% 0.0 mm 0.00 W/m2
05:14 20.9 °C 13.6 °C 1015.7 hPa NW 7.2 km/h 12.2 km/h 63% 0.0 mm 0.00 W/m2
05:19 20.4 °C 13.6 °C 1015.7 hPa NW 3.5 km/h 11.1 km/h 65% 0.0 mm 0.00 W/m2
05:24 20.0 °C 13.7 °C 1015.8 hPa WNW 6.1 km/h 11.1 km/h 67% 0.0 mm 0.00 W/m2
05:29 19.4 °C 14.0 °C 1015.7 hPa WNW 2.6 km/h 8.7 km/h 71% 0.0 mm 0.00 W/m2
05:34 19.0 °C 13.8 °C 1015.9 hPa Calm   7.2 km/h 72% 0.0 mm 0.00 W/m2
05:39 18.5 °C 14.2 °C 1016.1 hPa WNW 1.1 km/h 5.0 km/h 76% 0.0 mm 0.00 W/m2
05:44 18.3 °C 14.2 °C 1016.1 hPa West 2.6 km/h 5.0 km/h 77% 0.0 mm 0.00 W/m2
05:49 18.1 °C 14.2 °C 1016.1 hPa West 3.5 km/h 6.1 km/h 78% 0.0 mm 0.00 W/m2
05:54 18.2 °C 14.3 °C 1015.9 hPa WNW 3.5 km/h 8.7 km/h 78% 0.0 mm 0.00 W/m2
05:59 18.2 °C 14.3 °C 1016.1 hPa NW 5.0 km/h 8.7 km/h 78% 0.0 mm 1.00 W/m2
06:04 18.3 °C 14.2 °C 1016.2 hPa NW 5.0 km/h 8.7 km/h 77% 0.0 mm 4.00 W/m2
06:09 18.5 °C 14.0 °C 1016.2 hPa NW 3.5 km/h 7.2 km/h 75% 0.0 mm 13.00 W/m2
06:14 18.8 °C 14.3 °C 1016.3 hPa NW 2.6 km/h 7.2 km/h 75% 0.0 mm 21.00 W/m2
06:19 19.1 °C 14.2 °C 1016.3 hPa NW 2.6 km/h 6.1 km/h 73% 0.0 mm 26.00 W/m2
06:24 19.2 °C 14.1 °C 1016.2 hPa NW 2.6 km/h 6.1 km/h 72% 0.0 mm 32.00 W/m2
06:29 19.3 °C 14.1 °C 1016.2 hPa NNW 5.0 km/h 7.2 km/h 72% 0.0 mm 47.00 W/m2
06:34 19.8 °C 14.2 °C 1016.2 hPa NNW 6.1 km/h 11.1 km/h 70% 0.0 mm 54.00 W/m2
06:39 20.4 °C 14.1 °C 1016.2 hPa NNW 6.1 km/h 11.1 km/h 67% 0.0 mm 61.00 W/m2
06:44 20.6 °C 14.3 °C 1016.3 hPa NNW 3.5 km/h 9.7 km/h 67% 0.0 mm 69.00 W/m2
06:49 20.9 °C 14.3 °C 1016.4 hPa NNW 6.1 km/h 9.7 km/h 66% 0.0 mm 77.00 W/m2
06:54 21.1 °C 14.1 °C 1016.4 hPa NNW 7.2 km/h 14.8 km/h 64% 0.0 mm 83.00 W/m2
06:59 21.5 °C 14.2 °C 1016.6 hPa NNW 7.2 km/h 14.8 km/h 63% 0.0 mm 92.00 W/m2
07:04 21.8 °C 14.4 °C 1016.7 hPa NNW 5.0 km/h 11.1 km/h 63% 0.0 mm 100.00 W/m2
07:09 22.0 °C 14.2 °C 1016.7 hPa NNW 6.1 km/h 12.2 km/h 61% 0.0 mm 109.00 W/m2
07:15 22.2 °C 14.3 °C 1016.7 hPa NNW 5.0 km/h 13.4 km/h 61% 0.0 mm 120.00 W/m2
07:19 22.6 °C 14.7 °C 1016.9 hPa NNW 7.2 km/h 13.4 km/h 61% 0.0 mm 127.00 W/m2
07:25 22.6 °C 14.4 °C 1016.9 hPa NNW 7.2 km/h 11.1 km/h 60% 0.0 mm 141.00 W/m2
07:29 22.6 °C 14.4 °C 1016.9 hPa NNW 11.1 km/h 14.8 km/h 60% 0.0 mm 149.00 W/m2
07:34 22.3 °C 14.4 °C 1016.9 hPa NNW 6.1 km/h 14.8 km/h 61% 0.0 mm 158.00 W/m2
07:39 22.7 °C 14.8 °C 1017.2 hPa NNW 7.2 km/h 14.8 km/h 61% 0.0 mm 172.00 W/m2
07:45 23.0 °C 14.6 °C 1016.8 hPa NNW 7.2 km/h 14.8 km/h 59% 0.0 mm 184.00 W/m2
07:49 23.1 °C 14.7 °C 1017.0 hPa North 8.7 km/h 14.8 km/h 59% 0.0 mm 191.00 W/m2
07:55 23.3 °C 14.8 °C 1016.9 hPa North 7.2 km/h 14.8 km/h 59% 0.0 mm 207.00 W/m2
07:59 23.5 °C 14.8 °C 1017.0 hPa NNW 7.2 km/h 14.8 km/h 58% 0.0 mm 218.00 W/m2
08:04 23.7 °C 14.9 °C 1016.8 hPa NNW 5.0 km/h 15.8 km/h 58% 0.0 mm 230.00 W/m2
08:09 23.8 °C 15.1 °C 1016.9 hPa NNW 12.2 km/h 15.8 km/h 58% 0.0 mm 239.00 W/m2
08:14 23.7 °C 14.9 °C 1016.6 hPa North 12.2 km/h 17.2 km/h 58% 0.0 mm 248.00 W/m2
08:19 23.5 °C 14.8 °C 1016.4 hPa North 13.4 km/h 21.9 km/h 58% 0.0 mm 262.00 W/m2
08:25 23.6 °C 14.9 °C 1016.6 hPa North 12.2 km/h 21.9 km/h 58% 0.0 mm 281.00 W/m2
08:29 23.8 °C 14.8 °C 1016.6 hPa NNW 8.7 km/h 21.9 km/h 57% 0.0 mm 292.00 W/m2
08:35 24.0 °C 15.0 °C 1016.3 hPa North 11.1 km/h 21.9 km/h 57% 0.0 mm 307.00 W/m2
08:39 23.9 °C 14.9 °C 1016.2 hPa North 13.4 km/h 24.5 km/h 57% 0.0 mm 320.00 W/m2
08:44 23.7 °C 14.7 °C 1016.2 hPa North 12.2 km/h 25.6 km/h 57% 0.0 mm 327.00 W/m2
08:49 24.2 °C 15.2 °C 1016.5 hPa North 11.1 km/h 25.6 km/h 57% 0.0 mm 345.00 W/m2
08:54 24.4 °C 14.8 °C 1016.1 hPa North 12.2 km/h 21.9 km/h 55% 0.0 mm 358.00 W/m2
08:59 24.6 °C 14.7 °C 1016.2 hPa NNW 15.8 km/h 27.0 km/h 54% 0.0 mm 374.00 W/m2
09:05 24.6 °C 15.0 °C 1016.1 hPa NNW 11.1 km/h 27.0 km/h 55% 0.0 mm 389.00 W/m2
09:09 24.9 °C 15.0 °C 1016.0 hPa NNW 14.8 km/h 24.5 km/h 54% 0.0 mm 402.00 W/m2
09:14 24.8 °C 14.9 °C 1016.1 hPa NNW 13.4 km/h 24.5 km/h 54% 0.0 mm 416.00 W/m2
09:19 24.9 °C 14.7 °C 1016.0 hPa NNW 14.8 km/h 27.0 km/h 53% 0.0 mm 429.00 W/m2
09:24 25.0 °C 14.8 °C 1016.1 hPa NNW 17.2 km/h 27.0 km/h 53% 0.0 mm 444.00 W/m2
09:29 25.2 °C 14.7 °C 1015.7 hPa NNW 13.4 km/h 24.5 km/h 52% 0.0 mm 462.00 W/m2
09:34 25.4 °C 15.2 °C 1015.8 hPa North 13.4 km/h 24.5 km/h 53% 0.0 mm 482.00 W/m2
09:39 25.5 °C 14.3 °C 1016.0 hPa NNW 15.8 km/h 24.5 km/h 50% 0.0 mm 494.00 W/m2
09:44 25.6 °C 14.4 °C 1015.9 hPa NNW 13.4 km/h 24.5 km/h 50% 0.0 mm 510.00 W/m2
09:49 25.8 °C 14.3 °C 1016.0 hPa NNW 14.8 km/h 24.5 km/h 49% 0.0 mm 525.00 W/m2
09:55 25.9 °C 14.7 °C 1016.0 hPa NNW 12.2 km/h 24.5 km/h 50% 0.0 mm 548.00 W/m2
09:59 26.2 °C 14.7 °C 1015.9 hPa NNW 12.2 km/h 21.9 km/h 49% 0.0 mm 560.00 W/m2
10:05 26.4 °C 14.8 °C 1015.7 hPa NNW 15.8 km/h 20.9 km/h 49% 0.0 mm 584.00 W/m2
10:09 26.3 °C 14.8 °C 1015.8 hPa NNW 12.2 km/h 21.9 km/h 49% 0.0 mm 600.00 W/m2
10:14 26.4 °C 15.2 °C 1015.8 hPa NNW 15.8 km/h 21.9 km/h 50% 0.0 mm 621.00 W/m2
10:19 26.5 °C 15.3 °C 1015.8 hPa NW 9.7 km/h 20.9 km/h 50% 0.0 mm 645.00 W/m2
10:24 26.7 °C 15.4 °C 1015.7 hPa NNW 11.1 km/h 21.9 km/h 50% 0.0 mm 667.00 W/m2
10:29 27.2 °C 14.9 °C 1015.7 hPa NNW 8.7 km/h 21.9 km/h 47% 0.0 mm 689.00 W/m2
10:34 27.2 °C 14.9 °C 1015.9 hPa NW 9.7 km/h 21.9 km/h 47% 0.0 mm 701.00 W/m2
10:39 27.3 °C 15.0 °C 1015.9 hPa NW 9.7 km/h 17.2 km/h 47% 0.0 mm 719.00 W/m2
10:45 27.7 °C 15.4 °C 1015.7 hPa North 17.2 km/h 23.3 km/h 47% 0.0 mm 735.00 W/m2
10:49 28.1 °C 15.8 °C 1015.6 hPa North 11.1 km/h 23.3 km/h 47% 0.0 mm 743.00 W/m2
10:54 27.9 °C 15.6 °C 1015.7 hPa NNW 8.7 km/h 23.3 km/h 47% 0.0 mm 756.00 W/m2
10:59 28.4 °C 16.1 °C 1015.7 hPa NW 7.2 km/h 19.5 km/h 47% 0.0 mm 770.00 W/m2
11:04 28.2 °C 15.5 °C 1015.7 hPa NNW 9.7 km/h 17.2 km/h 46% 0.0 mm 775.00 W/m2
11:09 28.5 °C 16.1 °C 1015.4 hPa NNW 12.2 km/h 17.2 km/h 47% 0.0 mm 785.00 W/m2
11:15 28.5 °C 15.8 °C 1015.6 hPa NNW 15.8 km/h 19.5 km/h 46% 0.0 mm 792.00 W/m2
11:19 28.8 °C 16.4 °C 1015.4 hPa NNW 3.5 km/h 19.5 km/h 47% 0.0 mm 802.00 W/m2
11:24 29.0 °C 16.2 °C 1015.3 hPa NNW 9.7 km/h 21.9 km/h 46% 0.0 mm 810.00 W/m2
11:29 29.0 °C 16.2 °C 1015.3 hPa NNW 12.2 km/h 24.5 km/h 46% 0.0 mm 815.00 W/m2
11:34 29.0 °C 16.2 °C 1015.2 hPa North 7.2 km/h 24.5 km/h 46% 0.0 mm 824.00 W/m2
11:39 29.3 °C 16.2 °C 1015.4 hPa North 13.4 km/h 18.3 km/h 45% 0.0 mm 832.00 W/m2
11:45 29.5 °C 16.0 °C 1015.4 hPa North 8.7 km/h 20.9 km/h 44% 0.0 mm 843.00 W/m2
11:49 29.8 °C 16.3 °C 1015.4 hPa NNW 7.2 km/h 20.9 km/h 44% 0.0 mm 853.00 W/m2
11:55 29.8 °C 16.3 °C 1015.3 hPa NNW 13.4 km/h 18.3 km/h 44% 0.0 mm 855.00 W/m2
11:59 29.6 °C 16.1 °C 1015.4 hPa NNW 12.2 km/h 19.5 km/h 44% 0.0 mm 853.00 W/m2
12:05 29.8 °C 16.3 °C 1015.2 hPa NW 8.7 km/h 19.5 km/h 44% 0.0 mm 859.00 W/m2
12:09 30.2 °C 16.3 °C 1015.3 hPa NW 17.2 km/h 20.9 km/h 43% 0.0 mm 869.00 W/m2
12:14 30.1 °C 16.2 °C 1015.3 hPa WNW 12.2 km/h 20.9 km/h 43% 0.0 mm 873.00 W/m2
12:19 30.0 °C 15.3 °C 1015.2 hPa WNW 7.2 km/h 20.9 km/h 41% 0.0 mm 872.00 W/m2
12:25 30.3 °C 15.2 °C 1015.4 hPa WNW 9.7 km/h 19.5 km/h 40% 0.0 mm 874.00 W/m2
12:29 30.4 °C 16.4 °C 1015.2 hPa WNW 5.0 km/h 18.3 km/h 43% 0.0 mm 878.00 W/m2
12:34 30.2 °C 16.3 °C 1015.2 hPa West 9.7 km/h 17.2 km/h 43% 0.0 mm 875.00 W/m2
12:39 29.8 °C 16.6 °C 1015.1 hPa WNW 11.1 km/h 17.2 km/h 45% 0.0 mm 868.00 W/m2
12:44 29.9 °C 16.3 °C 1015.0 hPa WSW 2.6 km/h 17.2 km/h 44% 0.0 mm 876.00 W/m2
12:49 30.4 °C 16.4 °C 1015.2 hPa West 8.7 km/h 15.8 km/h 43% 0.0 mm 879.00 W/m2
12:54 30.3 °C 16.7 °C 1015.1 hPa West 9.7 km/h 17.2 km/h 44% 0.0 mm 875.00 W/m2
12:59 29.6 °C 16.4 °C 1015.0 hPa SSE 14.8 km/h 19.5 km/h 45% 0.0 mm 863.00 W/m2
13:04 29.2 °C 16.4 °C 1014.9 hPa SE 8.7 km/h 19.5 km/h 46% 0.0 mm 859.00 W/m2
13:09 29.3 °C 16.5 °C 1015.0 hPa South 8.7 km/h 17.2 km/h 46% 0.0 mm 861.00 W/m2
13:15 29.5 °C 16.3 °C 1015.0 hPa West 8.7 km/h 15.8 km/h 45% 0.0 mm 867.00 W/m2
13:19 29.6 °C 16.4 °C 1014.8 hPa WNW 12.2 km/h 15.8 km/h 45% 0.0 mm 868.00 W/m2
13:24 29.4 °C 16.3 °C 1015.1 hPa NNE 12.2 km/h 18.3 km/h 45% 0.0 mm 858.00 W/m2
13:29 29.0 °C 16.6 °C 1015.1 hPa North 12.2 km/h 19.5 km/h 47% 0.0 mm 927.00 W/m2
13:35 29.0 °C 16.2 °C 1015.0 hPa NNW 12.2 km/h 20.9 km/h 46% 0.0 mm 927.00 W/m2
13:39 29.5 °C 16.7 °C 1015.1 hPa NNW 11.1 km/h 20.9 km/h 46% 0.0 mm 893.00 W/m2
13:45 29.9 °C 17.1 °C 1015.0 hPa SE 9.7 km/h 18.3 km/h 46% 0.0 mm 869.00 W/m2
13:49 30.1 °C 16.9 °C 1015.0 hPa SSE 12.2 km/h 18.3 km/h 45% 0.0 mm 501.00 W/m2
13:54 30.0 °C 16.4 °C 1015.1 hPa ESE 9.7 km/h 17.2 km/h 44% 0.0 mm 313.00 W/m2
13:59 29.7 °C 16.2 °C 1015.1 hPa WSW 9.7 km/h 14.8 km/h 44% 0.0 mm 831.00 W/m2
14:04 29.9 °C 17.4 °C 1015.2 hPa SW 11.1 km/h 21.9 km/h 47% 0.0 mm 856.00 W/m2
14:09 29.5 °C 16.3 °C 1015.1 hPa ESE 7.2 km/h 21.9 km/h 45% 0.0 mm 831.00 W/m2
14:14 29.7 °C 16.9 °C 1015.1 hPa ESE 8.7 km/h 19.5 km/h 46% 0.0 mm 827.00 W/m2
14:19 30.1 °C 16.2 °C 1015.1 hPa SE 7.2 km/h 15.8 km/h 43% 0.0 mm 826.00 W/m2
14:24 30.4 °C 17.2 °C 1015.0 hPa SE 7.2 km/h 15.8 km/h 45% 0.0 mm 840.00 W/m2
14:29 30.7 °C 16.7 °C 1015.1 hPa SE 13.4 km/h 15.8 km/h 43% 0.0 mm 820.00 W/m2
14:34 30.4 °C 16.8 °C 1014.9 hPa SE 9.7 km/h 17.2 km/h 44% 0.0 mm 819.00 W/m2
14:39 30.2 °C 16.6 °C 1014.8 hPa ESE 6.1 km/h 17.2 km/h 44% 0.0 mm 785.00 W/m2
14:44 30.6 °C 17.0 °C 1014.9 hPa ESE 9.7 km/h 14.8 km/h 44% 0.0 mm 778.00 W/m2
14:49 31.0 °C 16.2 °C 1015.0 hPa ESE 8.7 km/h 14.8 km/h 41% 0.0 mm 773.00 W/m2
14:54 31.0 °C 16.2 °C 1015.0 hPa SE 9.7 km/h 14.8 km/h 41% 0.0 mm 196.00 W/m2
14:59 30.8 °C 16.8 °C 1014.9 hPa SSE 7.2 km/h 13.4 km/h 43% 0.0 mm 832.00 W/m2
15:04 30.8 °C 16.1 °C 1014.9 hPa SE 11.1 km/h 15.8 km/h 41% 0.0 mm 766.00 W/m2
15:06 30.8 °C 16.8 °C 1014.9 hPa SE 11.1 km/h 15.8 km/h 43% 0.0 mm 778.00 W/m2
15:14 30.9 °C 16.9 °C 1027.3 hPa West 7.2 km/h 9.7 km/h 43% 0.0 mm 712.00 W/m2
15:19 30.9 °C 16.2 °C 1027.3 hPa WNW 5.0 km/h 14.8 km/h 41% 0.0 mm 719.00 W/m2
15:24 31.0 °C 15.1 °C 1027.2 hPa WNW 5.0 km/h 14.8 km/h 38% 0.0 mm 707.00 W/m2
15:29 31.2 °C 15.2 °C 1027.2 hPa South 7.2 km/h 13.4 km/h 38% 0.0 mm 692.00 W/m2
15:34 30.8 °C 15.3 °C 1027.0 hPa ESE 8.7 km/h 15.8 km/h 39% 0.0 mm 668.00 W/m2
15:39 31.1 °C 15.9 °C 1027.2 hPa ESE 7.2 km/h 15.8 km/h 40% 0.0 mm 664.00 W/m2
15:44 31.6 °C 15.6 °C 1027.1 hPa SE 7.2 km/h 14.8 km/h 38% 0.0 mm 654.00 W/m2
15:49 31.4 °C 15.4 °C 1027.2 hPa SE 8.7 km/h 14.8 km/h 38% 0.0 mm 648.00 W/m2
15:54 31.4 °C 16.2 °C 1027.1 hPa SE 6.1 km/h 13.4 km/h 40% 0.0 mm 637.00 W/m2
15:59 31.5 °C 15.5 °C 1027.1 hPa SSE 7.2 km/h 15.8 km/h 38% 0.0 mm 627.00 W/m2
16:04 31.0 °C 15.8 °C 1027.2 hPa SE 6.1 km/h 17.2 km/h 40% 0.0 mm 618.00 W/m2
16:09 31.1 °C 15.1 °C 1027.0 hPa ESE 7.2 km/h 17.2 km/h 38% 0.0 mm 614.00 W/m2
16:14 31.1 °C 15.1 °C 1027.0 hPa ESE 6.1 km/h 14.8 km/h 38% 0.0 mm 609.00 W/m2
16:19 31.6 °C 15.2 °C 1027.1 hPa ESE 3.5 km/h 14.8 km/h 37% 0.0 mm 597.00 W/m2
16:39 31.3 °C 14.5 °C 1027.1 hPa SE 7.2 km/h 19.5 km/h 36% 0.0 mm 538.00 W/m2
16:44 31.0 °C 14.6 °C 1027.0 hPa SE 5.0 km/h 19.5 km/h 37% 0.0 mm 520.00 W/m2
16:49 30.7 °C 14.8 °C 1027.0 hPa SE 9.7 km/h 18.3 km/h 38% 0.0 mm 508.00 W/m2
16:54 30.6 °C 15.1 °C 1026.9 hPa ESE 11.1 km/h 17.2 km/h 39% 0.0 mm 499.00 W/m2
16:59 30.5 °C 14.6 °C 1027.1 hPa ESE 7.2 km/h 18.3 km/h 38% 0.0 mm 481.00 W/m2
17:04 30.6 °C 15.5 °C 1027.0 hPa ESE 12.2 km/h 18.3 km/h 40% 0.0 mm 471.00 W/m2
17:09 30.6 °C 15.9 °C 1027.1 hPa ESE 6.1 km/h 18.3 km/h 41% 0.0 mm 467.00 W/m2
17:14 30.5 °C 15.4 °C 1027.1 hPa ESE 11.1 km/h 18.3 km/h 40% 0.0 mm 433.00 W/m2
17:19 30.3 °C 17.1 °C 1027.1 hPa ESE 7.2 km/h 18.3 km/h 45% 0.0 mm 449.00 W/m2
17:24 30.3 °C 17.1 °C 1027.1 hPa SE 12.2 km/h 17.2 km/h 45% 0.0 mm 442.00 W/m2
17:29 29.9 °C 19.9 °C 1026.9 hPa SE 5.0 km/h 17.2 km/h 55% 0.0 mm 127.00 W/m2
17:34 28.4 °C 19.7 °C 1027.0 hPa SE 7.2 km/h 17.2 km/h 59% 0.0 mm 163.00 W/m2
17:39 27.8 °C 20.2 °C 1027.0 hPa SE 7.2 km/h 17.2 km/h 63% 0.0 mm 180.00 W/m2
17:40 27.8 °C 19.9 °C 1027.1 hPa ESE 8.7 km/h 17.2 km/h 62% 0.0 mm 386.00 W/m2
17:59 27.3 °C 20.7 °C 1027.2 hPa SE 6.1 km/h 17.2 km/h 67% 0.0 mm 399.00 W/m2
18:04 27.4 °C 21.2 °C 1027.2 hPa ESE 7.2 km/h 17.2 km/h 69% 0.0 mm 382.00 W/m2
18:09 27.8 °C 20.9 °C 1027.3 hPa SE 5.0 km/h 17.2 km/h 66% 0.0 mm 151.00 W/m2
18:14 27.4 °C 19.5 °C 1027.0 hPa SE 6.1 km/h 19.5 km/h 62% 0.0 mm 100.00 W/m2
18:19 26.4 °C 19.1 °C 1027.4 hPa ESE 8.7 km/h 19.5 km/h 64% 0.0 mm 107.00 W/m2
18:24 25.9 °C 19.1 °C 1027.3 hPa ESE 13.4 km/h 18.3 km/h 66% 0.0 mm 109.00 W/m2
18:29 25.5 °C 19.2 °C 1027.5 hPa East 5.0 km/h 18.3 km/h 68% 0.0 mm 98.00 W/m2
18:34 25.4 °C 19.1 °C 1027.6 hPa ESE 9.7 km/h 19.5 km/h 68% 0.0 mm 90.00 W/m2
18:39 25.3 °C 19.0 °C 1027.6 hPa NNE 5.0 km/h 19.5 km/h 68% 0.0 mm 82.00 W/m2
18:44 25.5 °C 18.9 °C 1027.6 hPa NNE 8.7 km/h 17.2 km/h 67% 0.0 mm 99.00 W/m2
18:49 25.3 °C 18.8 °C 1027.7 hPa SE 7.2 km/h 21.9 km/h 67% 0.0 mm 122.00 W/m2
18:54 25.4 °C 17.3 °C 1028.0 hPa SE 9.7 km/h 24.5 km/h 61% 0.0 mm 88.00 W/m2
18:59 25.1 °C 16.8 °C 1027.9 hPa ESE 12.2 km/h 24.5 km/h 60% 0.0 mm 79.00 W/m2
19:04 25.0 °C 16.4 °C 1027.8 hPa East 17.2 km/h 27.0 km/h 59% 0.0 mm 78.00 W/m2
19:09 25.0 °C 16.4 °C 1028.0 hPa ENE 13.4 km/h 27.0 km/h 59% 0.0 mm 79.00 W/m2
19:14 24.9 °C 16.6 °C 1028.1 hPa East 13.4 km/h 25.6 km/h 60% 0.0 mm 76.00 W/m2
19:19 24.9 °C 16.9 °C 1028.3 hPa East 13.4 km/h 25.6 km/h 61% 0.0 mm 88.00 W/m2
19:24 24.9 °C 16.9 °C 1028.4 hPa ESE 17.2 km/h 25.6 km/h 61% 0.0 mm 63.00 W/m2
19:29 24.8 °C 16.8 °C 1028.4 hPa SE 8.7 km/h 27.0 km/h 61% 0.0 mm 64.00 W/m2
19:34 25.0 °C 16.2 °C 1028.7 hPa SE 12.2 km/h 27.0 km/h 58% 0.0 mm 75.00 W/m2
19:39 25.0 °C 16.4 °C 1028.6 hPa ESE 12.2 km/h 23.3 km/h 59% 0.0 mm 83.00 W/m2
19:44 25.0 °C 16.2 °C 1028.7 hPa ESE 9.7 km/h 23.3 km/h 58% 0.0 mm 69.00 W/m2
19:49 24.9 °C 16.1 °C 1028.9 hPa ESE 13.4 km/h 21.9 km/h 58% 0.0 mm 48.00 W/m2
19:54 24.8 °C 16.0 °C 1028.9 hPa ESE 8.7 km/h 21.9 km/h 58% 0.0 mm 40.00 W/m2
19:59 24.7 °C 15.9 °C 1029.1 hPa SE 17.2 km/h 25.6 km/h 58% 0.0 mm 32.00 W/m2
20:04 24.6 °C 16.1 °C 1029.3 hPa ESE 11.1 km/h 25.6 km/h 59% 0.0 mm 25.00 W/m2
20:09 24.6 °C 16.1 °C 1029.3 hPa ESE 9.7 km/h 24.5 km/h 59% 0.0 mm 19.00 W/m2
20:14 24.5 °C 16.2 °C 1029.2 hPa ESE 7.2 km/h 18.3 km/h 60% 0.0 mm 9.00 W/m2
20:19 24.3 °C 16.3 °C 1029.6 hPa ESE 7.2 km/h 21.9 km/h 61% 0.0 mm 3.00 W/m2
20:24 24.2 °C 17.0 °C 1029.8 hPa SE 6.1 km/h 21.9 km/h 64% 0.0 mm 1.00 W/m2
20:29 24.0 °C 16.8 °C 1030.1 hPa ESE 8.7 km/h 17.2 km/h 64% 0.0 mm 0.00 W/m2
20:34 23.9 °C 17.2 °C 1030.2 hPa ESE 8.7 km/h 17.2 km/h 66% 0.0 mm 0.00 W/m2
20:39 23.8 °C 18.2 °C 1030.5 hPa ESE 8.7 km/h 19.5 km/h 71% 0.0 mm 0.00 W/m2
20:44 23.4 °C 18.1 °C 1030.4 hPa ESE 6.1 km/h 19.5 km/h 72% 0.0 mm 0.00 W/m2
20:49 23.3 °C 18.2 °C 1030.4 hPa ESE 5.0 km/h 17.2 km/h 73% 0.0 mm 0.00 W/m2
20:54 23.2 °C 18.6 °C 1030.6 hPa NE 6.1 km/h 13.4 km/h 75% 0.0 mm 0.00 W/m2
20:59 23.0 °C 18.6 °C 1030.5 hPa WNW 6.1 km/h 13.4 km/h 76% 0.0 mm 0.00 W/m2
21:04 22.9 °C 18.7 °C 1030.7 hPa SSE 5.0 km/h 12.2 km/h 77% 0.0 mm 0.00 W/m2
21:09 22.8 °C 18.6 °C 1030.8 hPa SE 7.2 km/h 12.2 km/h 77% 0.0 mm 0.00 W/m2
21:14 22.8 °C 18.8 °C 1030.8 hPa SE 3.5 km/h 9.7 km/h 78% 0.0 mm 0.00 W/m2
21:19 22.8 °C 19.2 °C 1030.8 hPa SE 6.1 km/h 9.7 km/h 80% 0.0 mm 0.00 W/m2
21:24 22.5 °C 18.5 °C 1030.9 hPa SE 15.8 km/h 21.9 km/h 78% 0.0 mm 0.00 W/m2
21:29 22.5 °C 17.0 °C 1030.9 hPa SE 11.1 km/h 21.9 km/h 71% 0.0 mm 0.00 W/m2
21:34 22.5 °C 16.8 °C 1031.0 hPa SSE 9.7 km/h 21.9 km/h 70% 0.0 mm 0.00 W/m2
21:39 22.5 °C 16.8 °C 1031.0 hPa NW 12.2 km/h 27.0 km/h 70% 0.0 mm 0.00 W/m2
21:44 22.5 °C 17.2 °C 1031.1 hPa NW 9.7 km/h 27.0 km/h 72% 0.0 mm 0.00 W/m2
21:49 22.5 °C 17.2 °C 1031.2 hPa SSW 12.2 km/h 23.3 km/h 72% 0.0 mm 0.00 W/m2
21:54 22.4 °C 17.1 °C 1031.3 hPa South 14.8 km/h 25.6 km/h 72% 0.0 mm 0.00 W/m2
21:59 22.4 °C 16.9 °C 1031.3 hPa West 13.4 km/h 25.6 km/h 71% 0.0 mm 0.00 W/m2
22:04 22.3 °C 16.6 °C 1031.4 hPa SSW 11.1 km/h 25.6 km/h 70% 0.0 mm 0.00 W/m2
22:09 22.3 °C 16.6 °C 1031.6 hPa WSW 12.2 km/h 25.6 km/h 70% 0.0 mm 0.00 W/m2
22:14 22.3 °C 16.6 °C 1031.5 hPa West 13.4 km/h 24.5 km/h 70% 0.0 mm 0.00 W/m2
22:19 22.3 °C 16.8 °C 1031.6 hPa NW 11.1 km/h 24.5 km/h 71% 0.0 mm 0.00 W/m2
22:24 22.3 °C 17.0 °C 1031.5 hPa SSE 6.1 km/h 20.9 km/h 72% 0.0 mm 0.00 W/m2
22:29 22.2 °C 16.5 °C 1031.6 hPa SSW 8.7 km/h 20.9 km/h 70% 0.0 mm 0.00 W/m2
22:34 22.3 °C 16.8 °C 1031.7 hPa SSE 8.7 km/h 19.5 km/h 71% 0.0 mm 0.00 W/m2
22:39 22.2 °C 16.5 °C 1031.8 hPa SW 8.7 km/h 19.5 km/h 70% 0.0 mm 0.00 W/m2
22:44 22.2 °C 16.7 °C 1031.7 hPa WNW 9.7 km/h 19.5 km/h 71% 0.0 mm 0.00 W/m2
22:49 22.2 °C 16.5 °C 1031.8 hPa NW 8.7 km/h 15.8 km/h 70% 0.0 mm 0.00 W/m2
22:54 22.2 °C 16.7 °C 1031.6 hPa West 6.1 km/h 14.8 km/h 71% 0.0 mm 0.00 W/m2
22:59 22.2 °C 16.3 °C 1031.8 hPa West 9.7 km/h 15.8 km/h 69% 0.0 mm 0.00 W/m2
23:04 22.2 °C 15.8 °C 1031.8 hPa West 12.2 km/h 24.5 km/h 67% 0.0 mm 0.00 W/m2
23:09 22.2 °C 15.6 °C 1031.8 hPa NW 14.8 km/h 24.5 km/h 66% 0.0 mm 0.00 W/m2
23:14 22.1 °C 15.7 °C 1031.7 hPa NW 9.7 km/h 24.5 km/h 67% 0.0 mm 0.00 W/m2
23:19 22.1 °C 15.7 °C 1031.8 hPa WNW 9.7 km/h 18.3 km/h 67% 0.0 mm 0.00 W/m2
23:24 22.1 °C 15.9 °C 1031.8 hPa NW 6.1 km/h 17.2 km/h 68% 0.0 mm 0.00 W/m2
23:29 22.1 °C 15.9 °C 1031.8 hPa NNW 11.1 km/h 15.8 km/h 68% 0.0 mm 0.00 W/m2
23:34 22.1 °C 16.4 °C 1032.0 hPa WNW 5.0 km/h 15.8 km/h 70% 0.0 mm 0.00 W/m2
23:39 22.1 °C 16.6 °C 1032.0 hPa West 7.2 km/h 15.8 km/h 71% 0.0 mm 0.00 W/m2
23:44 22.0 °C 16.7 °C 1032.1 hPa WNW 6.1 km/h 14.8 km/h 72% 0.0 mm 0.00 W/m2
23:49 22.0 °C 16.7 °C 1032.1 hPa NW 6.1 km/h 14.8 km/h 72% 0.0 mm 0.00 W/m2
23:54 22.0 °C 16.5 °C 1032.2 hPa North 8.7 km/h 14.8 km/h 71% 0.0 mm 0.00 W/m2
23:59 22.0 °C 16.5 °C 1032.2 hPa NW 6.1 km/h 13.4 km/h 71% 0.0 mm 0.00 W/m2
Northern Hawkes Bay. New Zealand Historic Data
Compliments of Weather Underground - 2 mb